Time;durP1;ratioP1;P1;durP2;ratioP2;P2;SDS_P1;SDS_P2;PMS_P1;PMS_P2;Temp;Humidity;BMP_temperature;BMP_pressure;BME280_temperature;BME280_humidity;BME280_pressure;Samples;Min_cycle;Max_cycle;Signal;HPM_P1;HPM_P2
2023/09/24 00:01:19;;;;;;;6.13;1.70;;;;;8.40;94808.00;;;;7398771;19;20162;-76
2023/09/24 00:03:49;;;;;;;4.70;1.60;;;;;8.30;94812.00;;;;7396620;19;20628;-73
2023/09/24 00:06:25;;;;;;;3.93;1.70;;;;;8.30;94809.00;;;;7398813;19;20604;-73
2023/09/24 00:08:59;;;;;;;5.23;1.40;;;;;8.30;94811.00;;;;7399686;19;20136;-74
2023/09/24 00:11:33;;;;;;;4.13;1.53;;;;;8.40;94809.00;;;;7397091;19;20169;-77
2023/09/24 00:14:03;;;;;;;3.63;1.40;;;;;8.30;94820.00;;;;7399070;19;20148;-73
2023/09/24 00:16:38;;;;;;;5.53;1.67;;;;;8.30;94820.00;;;;7398708;19;20132;-74
2023/09/24 00:19:13;;;;;;;2.40;1.67;;;;;8.00;94822.00;;;;7397792;19;20157;-73
2023/09/24 00:21:48;;;;;;;4.90;1.80;;;;;8.30;94821.00;;;;7398791;19;20132;-75
2023/09/24 00:24:22;;;;;;;2.67;1.30;;;;;8.40;94827.00;;;;7397242;19;20493;-75
2023/09/24 00:26:57;;;;;;;5.07;1.80;;;;;8.20;94818.00;;;;7397607;19;20607;-76
2023/09/24 00:29:31;;;;;;;4.30;1.80;;;;;8.10;94816.00;;;;7395763;19;20168;-75
2023/09/24 00:31:59;;;;;;;1.67;1.33;;;;;8.10;94825.00;;;;7398998;19;20156;-76
2023/09/24 00:34:38;;;;;;;2.27;1.80;;;;;7.90;94824.00;;;;7396248;19;20137;-74
2023/09/24 00:37:06;;;;;;;6.43;1.70;;;;;8.20;94821.00;;;;7397263;19;20147;-75
2023/09/24 00:39:36;;;;;;;3.53;1.27;;;;;8.30;94824.00;;;;7396752;19;20487;-75
2023/09/24 00:42:12;;;;;;;4.50;1.80;;;;;8.30;94823.00;;;;7397790;19;20176;-75
2023/09/24 00:44:46;;;;;;;2.17;1.30;;;;;8.10;94836.00;;;;7397763;19;20125;-76
2023/09/24 00:47:14;;;;;;;7.30;1.80;;;;;8.20;94833.00;;;;7395284;19;20501;-75
2023/09/24 00:49:50;;;;;;;4.50;1.50;;;;;8.10;94831.00;;;;7394598;19;20203;-76
2023/09/24 00:52:26;;;;;;;1.87;1.23;;;;;8.10;94832.00;;;;7397784;19;20132;-75
2023/09/24 00:54:56;;;;;;;3.97;1.43;;;;;8.10;94838.00;;;;7396135;19;20148;-75
2023/09/24 00:57:26;;;;;;;3.37;1.40;;;;;8.00;94832.00;;;;7393404;19;20140;-75
2023/09/24 01:00:09;;;;;;;4.60;1.30;;;;;7.90;94832.00;;;;7396997;19;20165;-75
2023/09/24 01:02:47;;;;;;;3.30;1.50;;;;;8.10;94835.00;;;;7395477;19;20152;-73
2023/09/24 01:05:30;;;;;;;3.23;1.60;;;;;8.20;94840.00;;;;7392751;19;20160;-75
2023/09/24 01:08:01;;;;;;;2.90;1.47;;;;;8.10;94829.00;;;;7397149;19;21737;-75
2023/09/24 01:10:36;;;;;;;3.57;1.60;;;;;8.00;94838.00;;;;7391747;19;20148;-77
2023/09/24 01:13:08;;;;;;;2.83;1.50;;;;;8.20;94844.00;;;;7389724;19;20144;-74
2023/09/24 01:15:40;;;;;;;5.43;1.80;;;;;8.10;94836.00;;;;7392306;19;20530;-75
2023/09/24 01:18:22;;;;;;;2.50;1.20;;;;;8.00;94836.00;;;;7396797;19;20140;-75
2023/09/24 01:20:57;;;;;;;8.10;1.90;;;;;7.90;94840.00;;;;7396761;19;20129;-75
2023/09/24 01:23:25;;;;;;;4.70;1.40;;;;;7.90;94842.00;;;;7396310;19;20145;-75
2023/09/24 01:26:03;;;;;;;5.20;1.50;;;;;7.80;94839.00;;;;7396301;19;20163;-75
2023/09/24 01:28:39;;;;;;;4.53;1.57;;;;;7.90;94838.00;;;;7395905;19;20145;-75
2023/09/24 01:31:15;;;;;;;3.20;1.57;;;;;7.80;94840.00;;;;7396403;19;20160;-74
2023/09/24 01:33:50;;;;;;;3.00;1.43;;;;;7.70;94845.00;;;;7394344;19;20148;-74
2023/09/24 01:36:27;;;;;;;4.47;1.70;;;;;7.50;94837.00;;;;7396146;19;20137;-73
2023/09/24 01:39:01;;;;;;;3.83;1.40;;;;;7.40;94840.00;;;;7396343;19;20586;-75
2023/09/24 01:41:32;;;;;;;3.37;1.40;;;;;7.30;94838.00;;;;7395679;19;20148;-74
2023/09/24 01:44:07;;;;;;;2.93;1.37;;;;;7.30;94844.00;;;;7395898;19;20141;-73
2023/09/24 01:46:38;;;;;;;3.07;1.83;;;;;7.30;94829.00;;;;7396571;19;20145;-73
2023/09/24 01:49:13;;;;;;;3.33;1.40;;;;;7.30;94830.00;;;;7392934;19;20141;-74
2023/09/24 01:51:45;;;;;;;2.87;1.47;;;;;7.40;94834.00;;;;7395391;19;20152;-75
2023/09/24 01:54:26;;;;;;;3.47;1.60;;;;;7.50;94829.00;;;;7396160;19;20172;-75
2023/09/24 01:56:57;;;;;;;7.80;1.47;;;;;7.70;94824.00;;;;7394047;19;20490;-74
2023/09/24 01:59:32;;;;;;;5.03;1.70;;;;;7.70;94830.00;;;;7397505;19;20591;-76
2023/09/24 02:02:08;;;;;;;6.03;1.87;;;;;7.70;94842.00;;;;7395770;19;20224;-73
2023/09/24 02:04:49;;;;;;;1.90;1.43;;;;;7.70;94843.00;;;;7393820;19;20145;-73
2023/09/24 02:07:27;;;;;;;1.83;1.40;;;;;7.70;94845.00;;;;7394327;19;20208;-76
2023/09/24 02:10:02;;;;;;;4.10;1.70;;;;;7.70;94850.00;;;;7393622;19;20141;-74
2023/09/24 02:12:38;;;;;;;5.90;1.67;;;;;7.70;94846.00;;;;7395404;19;20149;-73
2023/09/24 02:15:14;;;;;;;5.63;1.50;;;;;7.70;94844.00;;;;7394834;19;20154;-78
2023/09/24 02:17:53;;;;;;;2.40;1.50;;;;;7.80;94850.00;;;;7395752;19;20143;-77
2023/09/24 02:23:01;;;;;;;4.53;1.80;;;;;7.90;94852.00;;;;7395867;19;20133;-79
2023/09/24 02:25:38;;;;;;;5.00;1.67;;;;;8.10;94852.00;;;;7396181;19;20543;-81
2023/09/24 02:28:07;;;;;;;5.10;1.80;;;;;8.00;94848.00;;;;7393755;19;20129;-80
2023/09/24 02:30:41;;;;;;;4.77;2.13;;;;;8.00;94845.00;;;;7392673;19;20183;-80
2023/09/24 02:33:09;;;;;;;3.93;1.57;;;;;7.90;94856.00;;;;7393306;19;20125;-79
2023/09/24 02:35:44;;;;;;;3.07;1.93;;;;;7.70;94857.00;;;;7394892;19;20145;-79
2023/09/24 02:38:14;;;;;;;3.00;1.83;;;;;7.90;94852.00;;;;7393382;19;20172;-76
2023/09/24 02:40:42;;;;;;;2.00;1.53;;;;;7.70;94848.00;;;;7395846;19;20565;-78
2023/09/24 02:43:16;;;;;;;3.80;1.80;;;;;7.70;94857.00;;;;7392504;19;20117;-81
2023/09/24 02:45:44;;;;;;;4.03;1.40;;;;;7.80;94852.00;;;;7393129;19;20155;-78
2023/09/24 02:48:19;;;;;;;4.90;1.80;;;;;7.60;94855.00;;;;7394172;19;20148;-77
2023/09/24 02:50:50;;;;;;;3.80;1.73;;;;;7.60;94858.00;;;;7393062;19;20132;-80
2023/09/24 02:53:25;;;;;;;4.83;2.00;;;;;7.70;94854.00;;;;7394902;19;20484;-78
2023/09/24 02:55:53;;;;;;;8.23;2.07;;;;;7.60;94868.00;;;;7391886;19;20128;-79
2023/09/24 02:58:28;;;;;;;5.30;2.03;;;;;7.50;94856.00;;;;7393406;19;20120;-80
2023/09/24 03:01:02;;;;;;;6.00;1.73;;;;;7.40;94863.00;;;;7390367;19;20637;-77
2023/09/24 03:03:50;;;;;;;5.63;1.67;;;;;7.30;94864.00;;;;7392088;19;20137;-78
2023/09/24 03:06:26;;;;;;;8.07;2.00;;;;;7.30;94867.00;;;;7394902;19;20136;-79
2023/09/24 03:09:01;;;;;;;6.40;2.27;;;;;7.30;94860.00;;;;7394881;19;20157;-77
2023/09/24 03:11:28;;;;;;;3.77;1.57;;;;;7.30;94866.00;;;;7390360;19;20606;-78
2023/09/24 03:14:03;;;;;;;2.73;1.57;;;;;7.30;94860.00;;;;7392972;19;20192;-77
2023/09/24 03:16:37;;;;;;;4.33;1.60;;;;;7.30;94862.00;;;;7393176;19;20208;-80
2023/09/24 03:19:11;;;;;;;5.23;1.80;;;;;7.30;94872.00;;;;7393184;19;20162;-78
2023/09/24 03:21:38;;;;;;;4.17;1.90;;;;;7.30;94874.00;;;;7390996;19;20144;-79
2023/09/24 03:24:14;;;;;;;6.47;1.83;;;;;7.30;94879.00;;;;7393512;19;20147;-74
2023/09/24 03:26:42;;;;;;;5.67;2.00;;;;;7.30;94875.00;;;;7393984;19;20144;-73
2023/09/24 03:29:17;;;;;;;3.43;1.80;;;;;7.30;94884.00;;;;7392159;19;20484;-73
2023/09/24 03:31:44;;;;;;;7.03;2.00;;;;;7.30;94889.00;;;;7390130;19;20596;-74
2023/09/24 03:34:19;;;;;;;5.53;2.13;;;;;7.30;94886.00;;;;7392542;19;20164;-72
2023/09/24 03:36:54;;;;;;;4.70;1.90;;;;;7.20;94898.00;;;;7393465;19;20136;-74
2023/09/24 03:39:28;;;;;;;7.30;2.23;;;;;7.30;94896.00;;;;7392740;19;20164;-73
2023/09/24 03:41:56;;;;;;;5.53;2.20;;;;;7.40;94895.00;;;;7393964;19;20129;-74
2023/09/24 03:44:33;;;;;;;6.03;2.33;;;;;7.20;94894.00;;;;7392357;19;20148;-75
2023/09/24 03:47:00;;;;;;;5.00;2.07;;;;;7.10;94888.00;;;;7391357;19;20144;-75
2023/09/24 03:49:35;;;;;;;2.97;2.03;;;;;7.10;94888.00;;;;7391922;19;20160;-76
2023/09/24 03:52:12;;;;;;;6.00;2.80;;;;;7.20;94900.00;;;;7392561;19;20575;-76
2023/09/24 03:54:47;;;;;;;5.37;2.10;;;;;7.20;94885.00;;;;7390636;19;21619;-77
2023/09/24 03:57:27;;;;;;;6.10;2.17;;;;;7.20;94885.00;;;;7391652;19;20431;-73
2023/09/24 04:00:06;;;;;;;5.50;2.17;;;;;7.20;94893.00;;;;7392140;19;20136;-75
2023/09/24 04:02:47;;;;;;;6.57;2.10;;;;;7.10;94888.00;;;;7390043;19;20192;-74
2023/09/24 04:05:30;;;;;;;6.57;1.90;;;;;7.10;94901.00;;;;7389368;19;20184;-76
2023/09/24 04:08:11;;;;;;;4.97;2.50;;;;;6.90;94904.00;;;;7389373;19;20569;-73
2023/09/24 04:10:47;;;;;;;8.53;2.10;;;;;6.90;94915.00;;;;7391547;19;20488;-75
2023/09/24 04:13:18;;;;;;;4.20;2.20;;;;;6.70;94915.00;;;;7395419;19;20222;-74
2023/09/24 04:15:53;;;;;;;4.57;1.97;;;;;6.90;94914.00;;;;7400900;19;20148;-74
2023/09/24 04:18:22;;;;;;;5.60;2.03;;;;;7.00;94919.00;;;;7397820;19;20156;-75
2023/09/24 04:20:56;;;;;;;4.80;1.97;;;;;6.90;94920.00;;;;7396940;19;20534;-73
2023/09/24 04:23:27;;;;;;;3.30;2.00;;;;;6.70;94917.00;;;;7398272;19;20140;-74
2023/09/24 04:26:02;;;;;;;5.70;1.90;;;;;6.70;94934.00;;;;7396874;19;20137;-76
2023/09/24 04:28:30;;;;;;;4.20;2.10;;;;;6.70;94934.00;;;;7400329;19;20594;-75
2023/09/24 04:31:03;;;;;;;6.03;2.03;;;;;6.70;94924.00;;;;7395126;19;20667;-74
2023/09/24 04:33:38;;;;;;;5.33;2.00;;;;;6.60;94927.00;;;;7396757;19;20132;-73
2023/09/24 04:36:06;;;;;;;3.43;2.20;;;;;6.50;94928.00;;;;7398904;19;20147;-76
2023/09/24 04:38:41;;;;;;;6.30;2.27;;;;;6.60;94939.00;;;;7396782;19;20139;-74
2023/09/24 04:41:09;;;;;;;9.37;2.00;;;;;6.60;94947.00;;;;7398356;19;20152;-77
2023/09/24 04:43:37;;;;;;;3.77;2.23;;;;;6.70;94947.00;;;;7398757;19;20600;-76
2023/09/24 04:46:11;;;;;;;4.50;2.20;;;;;6.60;94936.00;;;;7397250;19;20520;-76
2023/09/24 04:48:39;;;;;;;7.97;2.43;;;;;6.70;94951.00;;;;7399042;19;20141;-77
2023/09/24 04:51:14;;;;;;;3.60;1.97;;;;;6.80;94952.00;;;;7396664;19;20180;-76
2023/09/24 04:53:42;;;;;;;6.27;2.37;;;;;6.80;94948.00;;;;7396834;19;20140;-77
2023/09/24 04:56:17;;;;;;;5.10;2.40;;;;;6.80;94957.00;;;;7396973;19;20607;-75
2023/09/24 04:58:45;;;;;;;7.20;2.17;;;;;6.90;94953.00;;;;7397473;19;20764;-77
2023/09/24 05:01:20;;;;;;;5.87;2.20;;;;;6.90;94956.00;;;;7397329;19;20171;-77
2023/09/24 05:03:52;;;;;;;4.73;2.03;;;;;6.90;94958.00;;;;7396956;19;20247;-75
2023/09/24 05:06:33;;;;;;;4.80;2.17;;;;;6.90;94962.00;;;;7396511;19;20273;-77
2023/09/24 05:09:09;;;;;;;7.23;2.30;;;;;7.00;94968.00;;;;7397441;19;20543;-77
2023/09/24 05:11:37;;;;;;;6.93;2.30;;;;;7.00;94979.00;;;;7394021;19;20259;-76
2023/09/24 05:14:12;;;;;;;5.43;2.10;;;;;7.00;94970.00;;;;7395466;19;20230;-78
2023/09/24 05:16:42;;;;;;;7.53;2.17;;;;;7.10;94978.00;;;;7399299;19;20580;-77
2023/09/24 05:19:10;;;;;;;4.73;2.30;;;;;7.00;94982.00;;;;7394965;19;21015;-76
2023/09/24 05:21:45;;;;;;;8.03;2.50;;;;;7.00;94984.00;;;;7395335;19;20132;-76
2023/09/24 05:24:13;;;;;;;6.43;2.17;;;;;6.90;94980.00;;;;7393116;19;20189;-75
2023/09/24 05:26:54;;;;;;;5.80;2.27;;;;;7.00;94989.00;;;;7390435;19;20163;-77
2023/09/24 05:29:30;;;;;;;3.10;2.00;;;;;7.10;94998.00;;;;7394402;19;20144;-76
2023/09/24 05:32:05;;;;;;;2.73;1.77;;;;;7.10;94990.00;;;;7390797;19;20132;-76
2023/09/24 05:34:40;;;;;;;6.10;1.80;;;;;7.10;94994.00;;;;7395467;19;20606;-77
2023/09/24 05:37:10;;;;;;;9.53;2.43;;;;;7.20;94989.00;;;;7393674;19;20144;-75
2023/09/24 05:39:44;;;;;;;4.80;2.13;;;;;7.30;94986.00;;;;7396037;19;20135;-75
2023/09/24 05:42:24;;;;;;;2.80;2.00;;;;;7.40;94996.00;;;;7395825;19;20132;-77
2023/09/24 05:44:59;;;;;;;4.57;1.97;;;;;7.50;95002.00;;;;7398861;19;20149;-77
2023/09/24 05:47:36;;;;;;;6.10;2.20;;;;;7.60;94999.00;;;;7393466;19;20184;-76
2023/09/24 05:50:05;;;;;;;4.43;2.20;;;;;7.70;94988.00;;;;7395354;19;20161;-76
2023/09/24 05:52:39;;;;;;;7.27;2.30;;;;;7.80;94999.00;;;;7395509;19;20452;-77
2023/09/24 05:55:10;;;;;;;7.73;2.10;;;;;8.00;94997.00;;;;7397375;19;20136;-77
2023/09/24 05:57:46;;;;;;;8.23;2.20;;;;;8.20;95005.00;;;;7395697;19;20139;-77
2023/09/24 06:00:21;;;;;;;4.03;2.27;;;;;8.20;94995.00;;;;7397865;19;20121;-76
2023/09/24 06:02:57;;;;;;;5.00;2.20;;;;;8.40;94990.00;;;;7394607;19;20683;-76
2023/09/24 06:05:38;;;;;;;4.67;2.30;;;;;8.50;94994.00;;;;7395298;19;20152;-77
2023/09/24 06:08:08;;;;;;;5.40;2.30;;;;;8.50;94992.00;;;;7394220;19;20174;-77
2023/09/24 06:10:49;;;;;;;5.77;2.10;;;;;8.70;94999.00;;;;7396469;19;20560;-77
2023/09/24 06:13:17;;;;;;;5.53;2.70;;;;;8.90;94999.00;;;;7394140;19;20140;-76
2023/09/24 06:15:48;;;;;;;4.97;2.30;;;;;8.90;95005.00;;;;7396292;19;20137;-76
2023/09/24 06:18:22;;;;;;;4.10;2.67;;;;;9.00;94999.00;;;;7393023;19;20129;-77
2023/09/24 06:20:56;;;;;;;5.53;2.67;;;;;9.20;95013.00;;;;7396672;19;20125;-77
2023/09/24 06:23:39;;;;;;;6.40;2.53;;;;;9.40;95015.00;;;;7396503;19;20216;-77
2023/09/24 06:26:14;;;;;;;10.13;3.00;;;;;9.60;95016.00;;;;7394703;19;20156;-77
2023/09/24 06:28:52;;;;;;;6.30;2.80;;;;;9.70;95018.00;;;;7396307;19;20517;-77
2023/09/24 06:31:39;;;;;;;6.83;2.80;;;;;9.90;95015.00;;;;7394718;19;20148;-77
2023/09/24 06:34:13;;;;;;;6.03;2.93;;;;;10.20;95022.00;;;;7396289;19;20261;-75
2023/09/24 06:36:48;;;;;;;6.57;2.73;;;;;10.30;95020.00;;;;7391511;19;20163;-77
2023/09/24 06:39:25;;;;;;;5.37;3.10;;;;;10.60;94955.00;;;;7394012;19;20151;-77
2023/09/24 06:41:53;;;;;;;5.60;2.67;;;;;10.90;95029.00;;;;7392717;19;20702;-74
2023/09/24 06:44:28;;;;;;;5.50;2.53;;;;;10.90;95025.00;;;;7395021;19;20155;-77
2023/09/24 06:46:56;;;;;;;5.28;2.30;;;;;11.10;95031.00;;;;7395874;19;20185;-77
2023/09/24 06:49:32;;;;;;;2.83;1.90;;;;;11.30;95028.00;;;;7393462;19;20155;-78
2023/09/24 06:52:00;;;;;;;3.13;1.98;;;;;11.40;95024.00;;;;7393133;19;20199;-77
2023/09/24 06:54:35;;;;;;;3.65;1.90;;;;;11.70;95023.00;;;;7397319;19;20133;-72
2023/09/24 06:57:02;;;;;;;4.93;2.30;;;;;11.80;95025.00;;;;7394725;19;20157;-74
2023/09/24 06:59:37;;;;;;;6.70;2.22;;;;;11.90;95021.00;;;;7390580;19;20145;-75
2023/09/24 07:02:06;;;;;;;4.60;2.00;;;;;12.10;95025.00;;;;7390371;19;20180;-73
2023/09/24 07:04:54;;;;;;;3.22;1.70;;;;;12.30;95022.00;;;;7393885;19;20148;-73
2023/09/24 07:07:29;;;;;;;3.65;1.58;;;;;12.40;95022.00;;;;7393823;19;20490;-74
2023/09/24 07:10:04;;;;;;;3.28;1.45;;;;;12.60;95025.00;;;;7393142;19;20128;-74
2023/09/24 07:12:40;;;;;;;4.60;1.95;;;;;12.70;95022.00;;;;7392384;19;20456;-75
2023/09/24 07:15:16;;;;;;;5.32;2.35;;;;;12.90;95024.00;;;;7392434;19;20140;-73
2023/09/24 07:17:50;;;;;;;5.07;1.80;;;;;13.10;95020.00;;;;7391952;19;20147;-72
2023/09/24 07:20:25;;;;;;;4.80;1.75;;;;;13.20;95021.00;;;;7392244;19;20136;-75
2023/09/24 07:23:00;;;;;;;5.13;1.70;;;;;13.20;95023.00;;;;7393745;19;20168;-71
2023/09/24 07:25:28;;;;;;;3.97;1.63;;;;;13.40;95027.00;;;;7391412;19;20129;-73
2023/09/24 07:28:04;;;;;;;3.53;1.70;;;;;13.60;95034.00;;;;7391453;19;20140;-73
2023/09/24 07:30:33;;;;;;;2.67;1.67;;;;;13.40;95042.00;;;;7393137;19;20121;-74
2023/09/24 07:33:08;;;;;;;4.25;1.67;;;;;13.50;95031.00;;;;7391016;19;20136;-72
2023/09/24 07:35:43;;;;;;;4.60;1.90;;;;;13.60;95036.00;;;;7393717;19;20125;-73
2023/09/24 07:38:11;;;;;;;2.53;1.50;;;;;14.00;95033.00;;;;7392171;19;20668;-73
2023/09/24 07:40:45;;;;;;;2.67;1.55;;;;;14.20;95042.00;;;;7388136;19;20600;-72
2023/09/24 07:43:13;;;;;;;3.10;1.65;;;;;14.30;95038.00;;;;7394577;19;20125;-75
2023/09/24 07:45:42;;;;;;;2.95;1.60;;;;;14.30;95037.00;;;;7389769;19;20604;-72
2023/09/24 07:48:17;;;;;;;7.68;1.55;;;;;14.50;95040.00;;;;7390500;19;20478;-72
2023/09/24 07:50:54;;;;;;;2.28;1.45;;;;;14.80;95035.00;;;;7397797;19;20143;-73
2023/09/24 07:53:22;;;;;;;4.07;1.52;;;;;14.60;95037.00;;;;7394614;19;20608;-72
2023/09/24 07:56:10;;;;;;;7.22;1.90;;;;;14.80;95045.00;;;;7394900;19;20144;-72
2023/09/24 07:58:39;;;;;;;3.80;1.63;;;;;14.70;95045.00;;;;7391042;19;20152;-73
2023/09/24 08:01:14;;;;;;;4.55;1.55;;;;;14.70;95043.00;;;;7394071;19;20611;-74
2023/09/24 08:03:49;;;;;;;5.68;1.70;;;;;14.60;95052.00;;;;7394650;19;20155;-73
2023/09/24 08:06:24;;;;;;;3.38;1.50;;;;;14.80;95042.00;;;;7391316;19;20640;-77
2023/09/24 08:08:59;;;;;;;3.50;1.58;;;;;14.90;95054.00;;;;7394606;19;20150;-76
2023/09/24 08:11:48;;;;;;;2.88;1.80;;;;;15.00;95056.00;;;;7393248;19;20157;-75
2023/09/24 08:14:30;;;;;;;3.13;1.90;;;;;15.30;95056.00;;;;7395928;19;20640;-76
2023/09/24 08:16:57;;;;;;;2.78;1.90;;;;;15.60;95055.00;;;;7393174;19;20164;-74
2023/09/24 08:19:32;;;;;;;3.92;1.70;;;;;15.40;95051.00;;;;7392997;19;20204;-74
2023/09/24 08:22:08;;;;;;;5.50;1.75;;;;;15.10;95057.00;;;;7392795;19;20617;-74
2023/09/24 08:24:36;;;;;;;4.28;2.05;;;;;15.00;95055.00;;;;7391581;19;20592;-77
2023/09/24 08:27:10;;;;;;;3.65;1.48;;;;;15.40;95047.00;;;;7393179;19;20606;-77
2023/09/24 08:29:38;;;;;;;2.67;1.92;;;;;15.60;95054.00;;;;7393591;19;20153;-76
2023/09/24 08:32:12;;;;;;;3.70;1.23;;;;;15.70;95048.00;;;;7393661;19;20159;-78
2023/09/24 08:34:40;;;;;;;4.57;1.92;;;;;15.90;95051.00;;;;7392164;19;20147;-75
2023/09/24 08:37:14;;;;;;;4.18;1.67;;;;;16.10;95052.00;;;;7394112;19;20621;-75
2023/09/24 08:39:43;;;;;;;4.18;1.50;;;;;16.10;95057.00;;;;7392744;19;20165;-75
2023/09/24 08:42:19;;;;;;;6.55;1.45;;;;;16.00;95049.00;;;;7392764;19;20173;-74
2023/09/24 08:45:09;;;;;;;4.30;1.73;;;;;16.10;95062.00;;;;7393751;19;20591;-75
2023/09/24 08:47:45;;;;;;;5.03;1.98;;;;;16.30;95062.00;;;;7387081;19;20175;-76
2023/09/24 08:50:20;;;;;;;2.42;1.60;;;;;16.20;95060.00;;;;7391252;19;20144;-76
2023/09/24 08:52:55;;;;;;;3.60;1.50;;;;;16.00;95059.00;;;;7390108;19;20594;-76
2023/09/24 08:55:23;;;;;;;3.70;1.80;;;;;16.00;95052.00;;;;7390722;19;20144;-75
2023/09/24 08:57:57;;;;;;;3.72;1.98;;;;;16.10;95059.00;;;;7391143;19;20555;-76
2023/09/24 09:00:25;;;;;;;2.60;1.40;;;;;16.20;95058.00;;;;7391410;19;20735;-76
2023/09/24 09:03:06;;;;;;;5.32;1.85;;;;;16.10;95055.00;;;;7390696;19;20164;-74
2023/09/24 09:05:49;;;;;;;2.40;1.55;;;;;16.30;95053.00;;;;7389962;19;20172;-77
2023/09/24 09:08:23;;;;;;;4.75;1.65;;;;;16.50;95060.00;;;;7390968;19;20121;-76
2023/09/24 09:10:57;;;;;;;4.82;1.63;;;;;16.60;95054.00;;;;7391068;19;20592;-77
2023/09/24 09:13:31;;;;;;;3.67;1.67;;;;;16.80;95058.00;;;;7390822;19;20600;-75
2023/09/24 09:16:08;;;;;;;4.28;1.60;;;;;17.20;95049.00;;;;7390165;19;20148;-78
2023/09/24 09:18:43;;;;;;;4.88;1.60;;;;;16.90;95048.00;;;;7392132;19;20144;-77
2023/09/24 09:21:27;;;;;;;3.72;1.80;;;;;17.00;95049.00;;;;7391302;19;20148;-80
2023/09/24 09:24:01;;;;;;;5.88;1.80;;;;;17.30;95051.00;;;;7390183;19;20156;-81
2023/09/24 09:26:33;;;;;;;4.03;1.50;;;;;17.80;95053.00;;;;7388392;19;20136;-77
2023/09/24 09:29:19;;;;;;;2.72;1.52;;;;;17.80;95046.00;;;;7389880;19;20129;-74
2023/09/24 09:31:50;;;;;;;6.80;1.90;;;;;17.70;95041.00;;;;7389687;19;20169;-77
2023/09/24 09:34:29;;;;;;;3.97;1.50;;;;;17.90;95042.00;;;;7385802;19;20730;-78
2023/09/24 09:37:16;;;;;;;4.18;1.88;;;;;17.60;95048.00;;;;7388075;19;20643;-79
2023/09/24 09:39:51;;;;;;;3.03;1.45;;;;;17.90;95037.00;;;;7392756;19;20172;-79
2023/09/24 09:42:21;;;;;;;3.22;1.60;;;;;18.10;95038.00;;;;7389212;19;20145;-77
2023/09/24 09:45:01;;;;;;;4.15;1.75;;;;;18.20;95045.00;;;;7387718;19;20144;-77
2023/09/24 09:48:04;;;;;;;2.40;1.40;;;;;17.70;95038.00;;;;7388669;19;20152;-77
2023/09/24 09:50:45;;;;;;;4.47;1.67;;;;;18.40;95043.00;;;;7388373;19;20200;-79
2023/09/24 09:53:24;;;;;;;5.32;1.88;;;;;18.60;95038.00;;;;7389049;19;20501;-79
2023/09/24 09:56:02;;;;;;;3.67;1.55;;;;;18.70;95045.00;;;;7389068;19;20145;-77
2023/09/24 09:58:34;;;;;;;6.22;1.75;;;;;18.50;95036.00;;;;7388346;19;20532;-79
2023/09/24 10:01:08;;;;;;;5.53;1.80;;;;;18.70;95036.00;;;;7387654;19;20144;-77
2023/09/24 10:03:47;;;;;;;2.80;1.80;;;;;18.00;95062.00;;;;7392726;19;20128;-82
2023/09/24 10:06:22;;;;;;;2.63;1.67;;;;;17.50;95042.00;;;;7388190;19;20157;-78
2023/09/24 10:09:04;;;;;;;2.47;1.45;;;;;18.50;95043.00;;;;7386662;19;20235;-79
2023/09/24 10:11:32;;;;;;;5.68;1.60;;;;;18.70;95042.00;;;;7387930;19;20136;-79
2023/09/24 10:14:08;;;;;;;3.58;1.10;;;;;19.10;95038.00;;;;7388028;19;20148;-78
2023/09/24 10:16:38;;;;;;;2.03;1.50;;;;;19.80;95032.00;;;;7390952;19;20133;-77
2023/09/24 10:19:13;;;;;;;3.35;1.85;;;;;20.00;95030.00;;;;7390312;19;21063;-76
2023/09/24 10:21:43;;;;;;;1.77;1.20;;;;;20.40;95022.00;;;;7388483;19;20604;-79
2023/09/24 10:24:22;;;;;;;2.28;1.42;;;;;20.70;95020.00;;;;7388184;19;20163;-77
2023/09/24 10:27:01;;;;;;;3.35;1.50;;;;;20.60;95013.00;;;;7389157;19;20608;-72
2023/09/24 10:29:45;;;;;;;1.85;1.50;;;;;19.70;95042.00;;;;7389321;19;20145;-73
2023/09/24 10:32:21;;;;;;;3.92;1.50;;;;;18.40;95048.00;;;;7385269;19;20145;-73
2023/09/24 10:35:01;;;;;;;3.65;1.60;;;;;18.40;95032.00;;;;7386760;19;20532;-73
2023/09/24 10:37:33;;;;;;;3.53;1.80;;;;;19.30;95021.00;;;;7390209;19;20157;-72
2023/09/24 10:40:12;;;;;;;3.63;1.50;;;;;19.30;95041.00;;;;7390254;19;20131;-74
2023/09/24 10:42:42;;;;;;;3.50;1.58;;;;;18.90;95044.00;;;;7387892;19;20165;-74
2023/09/24 10:45:16;;;;;;;2.80;1.70;;;;;18.80;95041.00;;;;7390633;19;20825;-73
2023/09/24 10:47:45;;;;;;;2.65;1.65;;;;;19.70;95023.00;;;;7386819;19;20148;-73
2023/09/24 10:50:23;;;;;;;3.95;1.70;;;;;19.30;95038.00;;;;7385233;19;20140;-74
2023/09/24 10:52:59;;;;;;;3.63;1.58;;;;;18.50;95038.00;;;;7386792;19;20195;-74
2023/09/24 10:55:38;;;;;;;3.40;1.70;;;;;18.20;95028.00;;;;7387551;19;20140;-75
2023/09/24 10:58:24;;;;;;;5.72;1.60;;;;;19.10;95016.00;;;;7386440;19;20151;-74
2023/09/24 11:00:58;;;;;;;4.28;1.55;;;;;19.90;95024.00;;;;7385710;19;20279;-75
2023/09/24 11:03:35;;;;;;;2.47;1.70;;;;;20.30;95023.00;;;;7384453;19;20132;-70
2023/09/24 11:06:10;;;;;;;3.97;1.88;;;;;21.20;95015.00;;;;7383418;19;20187;-71
2023/09/24 11:08:45;;;;;;;3.90;1.60;;;;;21.60;95005.00;;;;7383418;19;20175;-74
2023/09/24 11:11:21;;;;;;;2.45;1.60;;;;;21.20;95016.00;;;;7385138;19;20184;-73
2023/09/24 11:13:55;;;;;;;3.28;1.65;;;;;21.80;95004.00;;;;7385682;19;20227;-72
2023/09/24 11:16:23;;;;;;;1.40;1.25;;;;;22.40;95007.00;;;;7385188;19;20136;-72
2023/09/24 11:18:58;;;;;;;2.95;1.70;;;;;22.60;94993.00;;;;7386594;19;20752;-72
2023/09/24 11:21:32;;;;;;;2.72;1.70;;;;;22.70;94999.00;;;;7385667;19;20238;-73
2023/09/24 11:24:20;;;;;;;4.28;1.90;;;;;22.70;94991.00;;;;7394888;19;20143;-73
2023/09/24 11:26:48;;;;;;;2.35;1.55;;;;;22.70;94990.00;;;;7396939;19;20554;-72
2023/09/24 11:29:22;;;;;;;4.80;1.70;;;;;22.30;94990.00;;;;7395482;19;20140;-73
2023/09/24 11:31:56;;;;;;;2.58;1.33;;;;;23.10;94983.00;;;;7393756;19;20139;-72
2023/09/24 11:34:24;;;;;;;1.75;1.30;;;;;22.60;94980.00;;;;7391784;19;20140;-73
2023/09/24 11:37:06;;;;;;;5.20;1.70;;;;;22.70;94997.00;;;;7394523;19;20560;-72
2023/09/24 11:39:44;;;;;;;3.20;2.05;;;;;21.80;94992.00;;;;7397091;19;20604;-72
2023/09/24 11:42:18;;;;;;;2.97;1.70;;;;;22.80;94997.00;;;;7394805;19;20149;-73
2023/09/24 11:44:47;;;;;;;2.67;1.55;;;;;22.90;94986.00;;;;7394645;19;20151;-74
2023/09/24 11:47:15;;;;;;;3.15;1.95;;;;;23.50;94988.00;;;;7395631;19;20165;-72
2023/09/24 11:49:50;;;;;;;2.17;1.23;;;;;22.60;95008.00;;;;7396068;19;20498;-73
2023/09/24 11:52:17;;;;;;;2.13;1.58;;;;;20.60;95016.00;;;;7393329;19;20133;-72
2023/09/24 11:54:52;;;;;;;2.90;1.67;;;;;20.00;94985.00;;;;7392576;19;20135;-72
2023/09/24 11:57:26;;;;;;;3.92;1.75;;;;;19.80;95027.00;;;;7393805;19;20159;-73
2023/09/24 12:00:01;;;;;;;2.45;1.77;;;;;18.10;95028.00;;;;7393758;19;20781;-71
2023/09/24 12:02:35;;;;;;;6.25;1.75;;;;;17.50;94988.00;;;;7393042;19;20235;-73
2023/09/24 12:05:24;;;;;;;2.10;1.60;;;;;18.70;94991.00;;;;7393765;19;20135;-74
2023/09/24 12:08:03;;;;;;;2.58;1.50;;;;;19.50;94983.00;;;;7391610;19;20190;-76
2023/09/24 12:10:40;;;;;;;3.75;1.67;;;;;20.00;94992.00;;;;7389008;19;20210;-75
2023/09/24 12:13:09;;;;;;;4.85;1.92;;;;;20.80;95014.00;;;;7388382;19;20136;-73
2023/09/24 12:15:44;;;;;;;4.30;2.00;;;;;19.30;95018.00;;;;7387435;19;20619;-74
2023/09/24 12:18:19;;;;;;;3.45;1.70;;;;;20.00;94978.00;;;;7386976;19;20132;-72
2023/09/24 12:20:47;;;;;;;5.07;1.83;;;;;20.90;95001.00;;;;7391488;19;20249;-72
2023/09/24 12:23:22;;;;;;;4.15;1.70;;;;;20.40;95008.00;;;;7388782;19;20144;-74
2023/09/24 12:25:50;;;;;;;2.85;1.63;;;;;19.60;95000.00;;;;7393656;19;20133;-72
2023/09/24 12:28:27;;;;;;;3.08;1.73;;;;;20.20;94971.00;;;;7392079;19;20196;-72
2023/09/24 12:30:56;;;;;;;3.95;1.92;;;;;20.70;94969.00;;;;7391611;19;20819;-74
2023/09/24 12:33:30;;;;;;;2.15;1.65;;;;;22.20;94984.00;;;;7387076;19;20146;-75
2023/09/24 12:35:58;;;;;;;3.35;1.73;;;;;21.80;94955.00;;;;7393600;19;20148;-74
2023/09/24 12:38:26;;;;;;;2.67;1.67;;;;;22.10;94985.00;;;;7388210;19;20129;-73
2023/09/24 12:41:00;;;;;;;4.00;1.88;;;;;20.40;94998.00;;;;7392812;19;20159;-72
2023/09/24 12:43:34;;;;;;;4.85;1.88;;;;;18.70;95004.00;;;;7391162;19;20646;-73
2023/09/24 12:46:09;;;;;;;2.70;1.23;;;;;18.00;95000.00;;;;7390404;19;20121;-76
2023/09/24 12:48:44;;;;;;;2.97;1.70;;;;;19.70;94970.00;;;;7389649;19;20135;-74
2023/09/24 12:51:18;;;;;;;2.03;1.42;;;;;21.50;94961.00;;;;7392118;19;20132;-74
2023/09/24 12:53:53;;;;;;;2.03;1.60;;;;;22.80;94953.00;;;;7392308;19;20605;-76
2023/09/24 12:56:28;;;;;;;4.10;2.03;;;;;23.20;94945.00;;;;7390319;19;20684;-74
2023/09/24 12:59:03;;;;;;;1.77;1.55;;;;;23.90;94953.00;;;;7390203;19;20893;-74
2023/09/24 13:01:38;;;;;;;2.58;1.50;;;;;23.50;94959.00;;;;7390224;19;20178;-74